Terminal Aerodrome Forecast
Issued by NWS

Home | Current Version | Previous Version | Text Only | Print | Product List | Glossary On
Versions: 1 2 3 4 5 6 7 8 9 10 11 12 13 14 15 16 17 18
671
FTUS43 KAPX 050242 AAA
TAFMBL
TAF AMD
KMBL 050242Z 0503/0524 36010G17KT P6SM VCSH SCT018 OVC050
     FM050800 01007KT P6SM BKN018
     FM051400 35007KT P6SM SCT025
     FM051900 32009KT P6SM FEW250
      AMD LTD TO CLD VIS AND WIND=

USA.gov is the U.S. government's official web portal to all federal, state and local government web resources and services.